Terminal Aerodrome Forecast
Issued by NWS Greer, SC

Home | Current Version | Previous Version | Text Only | Print | Product List | Glossary On
Versions: 1 2 3 4 5 6 7 8 9 10 11 12 13 14 15 16 17 18 19 20 21 22 23 24 25 26 27
000
FTUS42 KGSP 221720
TAFGSP
TAF
KGSP 221720Z 2218/2318 23009KT P6SM OVC020
     FM222200 21007KT P6SM SCT050
     FM230800 21004KT P6SM BKN019
     FM231100 20003KT 5SM BR BKN007
     FM231500 20006KT P6SM BKN020=

USA.gov is the U.S. government's official web portal to all federal, state and local government web resources and services.